sensor_id;sensor_type;location;lat;lon;timestamp;P1;durP1;ratioP1;P2;durP2;ratioP2
77726;SDS011;68312;53.502;10.030;2023-03-24T00:00:14;7.57;;;3.00;;
77726;SDS011;68312;53.502;10.030;2023-03-24T00:02:45;6.30;;;2.88;;
77726;SDS011;68312;53.502;10.030;2023-03-24T00:05:19;4.43;;;2.67;;
77726;SDS011;68312;53.502;10.030;2023-03-24T00:07:47;5.93;;;2.50;;
77726;SDS011;68312;53.502;10.030;2023-03-24T00:10:15;6.82;;;2.88;;
77726;SDS011;68312;53.502;10.030;2023-03-24T00:12:45;5.65;;;2.83;;
77726;SDS011;68312;53.502;10.030;2023-03-24T00:15:14;6.57;;;2.75;;
77726;SDS011;68312;53.502;10.030;2023-03-24T00:17:45;5.35;;;2.83;;
77726;SDS011;68312;53.502;10.030;2023-03-24T00:20:14;5.32;;;2.45;;
77726;SDS011;68312;53.502;10.030;2023-03-24T00:22:44;4.85;;;2.45;;
77726;SDS011;68312;53.502;10.030;2023-03-24T00:25:18;4.53;;;2.90;;
77726;SDS011;68312;53.502;10.030;2023-03-24T00:27:50;6.60;;;2.93;;
77726;SDS011;68312;53.502;10.030;2023-03-24T00:30:19;7.72;;;2.30;;
77726;SDS011;68312;53.502;10.030;2023-03-24T00:32:49;4.55;;;2.58;;
77726;SDS011;68312;53.502;10.030;2023-03-24T00:35:15;6.55;;;2.97;;
77726;SDS011;68312;53.502;10.030;2023-03-24T00:37:45;4.53;;;2.28;;
77726;SDS011;68312;53.502;10.030;2023-03-24T00:40:15;6.65;;;3.08;;
77726;SDS011;68312;53.502;10.030;2023-03-24T00:42:45;7.47;;;2.80;;
77726;SDS011;68312;53.502;10.030;2023-03-24T00:45:14;7.72;;;2.83;;
77726;SDS011;68312;53.502;10.030;2023-03-24T00:47:49;5.45;;;3.08;;
77726;SDS011;68312;53.502;10.030;2023-03-24T00:50:18;7.50;;;3.05;;
77726;SDS011;68312;53.502;10.030;2023-03-24T00:52:50;4.28;;;2.60;;
77726;SDS011;68312;53.502;10.030;2023-03-24T00:55:16;8.18;;;2.83;;
77726;SDS011;68312;53.502;10.030;2023-03-24T00:57:42;5.35;;;2.72;;
77726;SDS011;68312;53.502;10.030;2023-03-24T01:00:18;5.15;;;2.92;;
77726;SDS011;68312;53.502;10.030;2023-03-24T01:02:51;6.03;;;2.95;;
77726;SDS011;68312;53.502;10.030;2023-03-24T01:05:22;4.75;;;2.80;;
77726;SDS011;68312;53.502;10.030;2023-03-24T01:07:57;8.13;;;2.70;;
77726;SDS011;68312;53.502;10.030;2023-03-24T01:12:56;8.23;;;2.97;;
77726;SDS011;68312;53.502;10.030;2023-03-24T01:15:28;4.72;;;2.40;;
77726;SDS011;68312;53.502;10.030;2023-03-24T01:20:32;5.38;;;2.33;;
77726;SDS011;68312;53.502;10.030;2023-03-24T01:22:58;3.72;;;2.15;;
77726;SDS011;68312;53.502;10.030;2023-03-24T01:25:25;6.63;;;2.30;;
77726;SDS011;68312;53.502;10.030;2023-03-24T01:27:52;6.55;;;3.08;;
77726;SDS011;68312;53.502;10.030;2023-03-24T01:30:19;6.53;;;2.17;;
77726;SDS011;68312;53.502;10.030;2023-03-24T01:32:50;8.80;;;2.65;;
77726;SDS011;68312;53.502;10.030;2023-03-24T01:35:17;4.47;;;2.33;;
77726;SDS011;68312;53.502;10.030;2023-03-24T01:37:46;7.60;;;2.50;;
77726;SDS011;68312;53.502;10.030;2023-03-24T01:40:16;4.47;;;2.40;;
77726;SDS011;68312;53.502;10.030;2023-03-24T01:42:49;4.45;;;2.20;;
77726;SDS011;68312;53.502;10.030;2023-03-24T01:48:13;6.10;;;2.58;;
77726;SDS011;68312;53.502;10.030;2023-03-24T01:54:10;9.05;;;3.25;;
77726;SDS011;68312;53.502;10.030;2023-03-24T01:59:45;7.30;;;2.33;;
77726;SDS011;68312;53.502;10.030;2023-03-24T02:02:17;5.43;;;2.38;;
77726;SDS011;68312;53.502;10.030;2023-03-24T02:04:46;7.03;;;2.38;;
77726;SDS011;68312;53.502;10.030;2023-03-24T02:10:13;4.18;;;2.58;;
77726;SDS011;68312;53.502;10.030;2023-03-24T02:12:42;4.22;;;2.03;;
77726;SDS011;68312;53.502;10.030;2023-03-24T02:15:11;8.82;;;3.03;;
77726;SDS011;68312;53.502;10.030;2023-03-24T02:17:50;6.28;;;2.25;;
77726;SDS011;68312;53.502;10.030;2023-03-24T02:27:00;6.05;;;2.60;;
77726;SDS011;68312;53.502;10.030;2023-03-24T02:30:13;5.15;;;1.88;;
77726;SDS011;68312;53.502;10.030;2023-03-24T02:39:57;6.15;;;2.30;;
77726;SDS011;68312;53.502;10.030;2023-03-24T02:43:06;5.95;;;2.28;;
77726;SDS011;68312;53.502;10.030;2023-03-24T02:54:21;6.15;;;2.72;;
77726;SDS011;68312;53.502;10.030;2023-03-24T02:57:32;5.03;;;2.50;;
77726;SDS011;68312;53.502;10.030;2023-03-24T03:03:27;6.15;;;2.67;;
77726;SDS011;68312;53.502;10.030;2023-03-24T03:08:47;8.00;;;2.67;;
77726;SDS011;68312;53.502;10.030;2023-03-24T03:11:15;7.18;;;2.83;;
77726;SDS011;68312;53.502;10.030;2023-03-24T03:16:20;5.78;;;2.35;;
77726;SDS011;68312;53.502;10.030;2023-03-24T03:18:59;5.63;;;2.42;;
77726;SDS011;68312;53.502;10.030;2023-03-24T03:21:34;4.55;;;2.88;;
77726;SDS011;68312;53.502;10.030;2023-03-24T03:24:09;6.50;;;2.50;;
77726;SDS011;68312;53.502;10.030;2023-03-24T03:26:44;4.90;;;2.70;;
77726;SDS011;68312;53.502;10.030;2023-03-24T03:29:15;6.63;;;2.60;;
77726;SDS011;68312;53.502;10.030;2023-03-24T03:31:48;4.78;;;2.38;;
77726;SDS011;68312;53.502;10.030;2023-03-24T03:34:55;7.70;;;2.70;;
77726;SDS011;68312;53.502;10.030;2023-03-24T03:37:46;6.13;;;2.63;;
77726;SDS011;68312;53.502;10.030;2023-03-24T03:43:23;5.30;;;2.67;;
77726;SDS011;68312;53.502;10.030;2023-03-24T03:45:51;3.83;;;2.38;;
77726;SDS011;68312;53.502;10.030;2023-03-24T03:48:19;4.32;;;2.53;;
77726;SDS011;68312;53.502;10.030;2023-03-24T03:50:45;7.32;;;2.42;;
77726;SDS011;68312;53.502;10.030;2023-03-24T03:53:15;4.63;;;2.85;;
77726;SDS011;68312;53.502;10.030;2023-03-24T03:55:47;5.13;;;2.75;;
77726;SDS011;68312;53.502;10.030;2023-03-24T03:58:13;9.50;;;2.95;;
77726;SDS011;68312;53.502;10.030;2023-03-24T04:00:38;5.65;;;2.80;;
77726;SDS011;68312;53.502;10.030;2023-03-24T04:03:13;6.05;;;2.97;;
77726;SDS011;68312;53.502;10.030;2023-03-24T04:13:07;5.45;;;2.53;;
77726;SDS011;68312;53.502;10.030;2023-03-24T04:25:15;6.43;;;2.63;;
77726;SDS011;68312;53.502;10.030;2023-03-24T04:28:08;4.63;;;2.10;;
77726;SDS011;68312;53.502;10.030;2023-03-24T04:30:58;5.75;;;3.05;;
77726;SDS011;68312;53.502;10.030;2023-03-24T04:33:45;5.47;;;2.70;;
77726;SDS011;68312;53.502;10.030;2023-03-24T04:39:14;5.32;;;2.75;;
77726;SDS011;68312;53.502;10.030;2023-03-24T04:41:52;6.80;;;2.63;;
77726;SDS011;68312;53.502;10.030;2023-03-24T04:44:23;5.07;;;2.40;;
77726;SDS011;68312;53.502;10.030;2023-03-24T04:46:50;7.68;;;2.97;;
77726;SDS011;68312;53.502;10.030;2023-03-24T04:49:22;4.53;;;2.90;;
77726;SDS011;68312;53.502;10.030;2023-03-24T04:51:51;4.43;;;2.85;;
77726;SDS011;68312;53.502;10.030;2023-03-24T04:54:18;4.55;;;2.90;;
77726;SDS011;68312;53.502;10.030;2023-03-24T04:56:52;5.45;;;3.42;;
77726;SDS011;68312;53.502;10.030;2023-03-24T04:59:23;6.32;;;2.63;;
77726;SDS011;68312;53.502;10.030;2023-03-24T05:01:50;3.97;;;2.40;;
77726;SDS011;68312;53.502;10.030;2023-03-24T05:04:16;7.10;;;2.70;;
77726;SDS011;68312;53.502;10.030;2023-03-24T05:06:46;5.47;;;3.35;;
77726;SDS011;68312;53.502;10.030;2023-03-24T05:09:13;4.60;;;2.80;;
77726;SDS011;68312;53.502;10.030;2023-03-24T05:11:45;6.20;;;3.03;;
77726;SDS011;68312;53.502;10.030;2023-03-24T05:14:12;4.78;;;3.33;;
77726;SDS011;68312;53.502;10.030;2023-03-24T05:16:39;5.82;;;3.25;;
77726;SDS011;68312;53.502;10.030;2023-03-24T05:19:05;5.43;;;3.05;;
77726;SDS011;68312;53.502;10.030;2023-03-24T05:21:31;5.47;;;2.78;;
77726;SDS011;68312;53.502;10.030;2023-03-24T05:24:01;7.28;;;3.38;;
77726;SDS011;68312;53.502;10.030;2023-03-24T05:26:27;5.97;;;2.70;;
77726;SDS011;68312;53.502;10.030;2023-03-24T05:28:53;6.25;;;2.67;;
77726;SDS011;68312;53.502;10.030;2023-03-24T05:31:18;8.15;;;3.03;;
77726;SDS011;68312;53.502;10.030;2023-03-24T05:33:44;5.45;;;2.88;;
77726;SDS011;68312;53.502;10.030;2023-03-24T05:36:16;5.45;;;2.75;;
77726;SDS011;68312;53.502;10.030;2023-03-24T05:38:42;3.22;;;2.03;;
77726;SDS011;68312;53.502;10.030;2023-03-24T05:41:08;4.57;;;3.05;;
77726;SDS011;68312;53.502;10.030;2023-03-24T05:43:33;4.22;;;2.40;;
77726;SDS011;68312;53.502;10.030;2023-03-24T05:45:59;4.03;;;2.03;;
77726;SDS011;68312;53.502;10.030;2023-03-24T05:48:25;4.07;;;2.90;;
77726;SDS011;68312;53.502;10.030;2023-03-24T05:50:52;2.90;;;2.30;;
77726;SDS011;68312;53.502;10.030;2023-03-24T05:53:18;5.15;;;3.25;;
77726;SDS011;68312;53.502;10.030;2023-03-24T05:55:44;6.22;;;2.75;;
77726;SDS011;68312;53.502;10.030;2023-03-24T05:58:10;5.03;;;2.88;;
77726;SDS011;68312;53.502;10.030;2023-03-24T06:00:36;4.50;;;2.70;;
77726;SDS011;68312;53.502;10.030;2023-03-24T06:03:02;4.07;;;2.83;;
77726;SDS011;68312;53.502;10.030;2023-03-24T06:05:28;4.38;;;2.70;;
77726;SDS011;68312;53.502;10.030;2023-03-24T06:07:55;6.53;;;3.03;;
77726;SDS011;68312;53.502;10.030;2023-03-24T06:10:26;4.03;;;2.28;;
77726;SDS011;68312;53.502;10.030;2023-03-24T06:12:53;4.22;;;2.60;;
77726;SDS011;68312;53.502;10.030;2023-03-24T06:15:23;7.70;;;2.80;;
77726;SDS011;68312;53.502;10.030;2023-03-24T06:17:51;4.30;;;2.55;;
77726;SDS011;68312;53.502;10.030;2023-03-24T06:20:19;3.95;;;1.92;;
77726;SDS011;68312;53.502;10.030;2023-03-24T06:22:46;3.85;;;2.53;;
77726;SDS011;68312;53.502;10.030;2023-03-24T06:25:14;3.60;;;2.38;;
77726;SDS011;68312;53.502;10.030;2023-03-24T06:27:44;5.38;;;2.53;;
77726;SDS011;68312;53.502;10.030;2023-03-24T06:30:11;3.95;;;2.10;;
77726;SDS011;68312;53.502;10.030;2023-03-24T06:32:40;4.45;;;2.30;;
77726;SDS011;68312;53.502;10.030;2023-03-24T06:35:07;3.88;;;2.20;;
77726;SDS011;68312;53.502;10.030;2023-03-24T06:37:33;3.88;;;2.40;;
77726;SDS011;68312;53.502;10.030;2023-03-24T06:40:02;4.88;;;2.50;;
77726;SDS011;68312;53.502;10.030;2023-03-24T06:42:31;6.32;;;2.38;;
77726;SDS011;68312;53.502;10.030;2023-03-24T06:44:57;4.63;;;2.60;;
77726;SDS011;68312;53.502;10.030;2023-03-24T06:47:22;3.97;;;2.50;;
77726;SDS011;68312;53.502;10.030;2023-03-24T06:49:48;3.83;;;2.00;;
77726;SDS011;68312;53.502;10.030;2023-03-24T06:52:13;4.47;;;2.25;;
77726;SDS011;68312;53.502;10.030;2023-03-24T06:54:39;3.35;;;2.17;;
77726;SDS011;68312;53.502;10.030;2023-03-24T06:57:05;3.83;;;2.40;;
77726;SDS011;68312;53.502;10.030;2023-03-24T06:59:30;3.40;;;2.25;;
77726;SDS011;68312;53.502;10.030;2023-03-24T07:01:56;2.97;;;2.05;;
77726;SDS011;68312;53.502;10.030;2023-03-24T07:04:21;3.45;;;2.30;;
77726;SDS011;68312;53.502;10.030;2023-03-24T07:06:50;5.13;;;2.15;;
77726;SDS011;68312;53.502;10.030;2023-03-24T07:09:17;3.83;;;1.83;;
77726;SDS011;68312;53.502;10.030;2023-03-24T07:11:43;3.55;;;2.25;;
77726;SDS011;68312;53.502;10.030;2023-03-24T07:14:10;3.28;;;1.80;;
77726;SDS011;68312;53.502;10.030;2023-03-24T07:16:35;4.07;;;1.90;;
77726;SDS011;68312;53.502;10.030;2023-03-24T07:19:01;4.03;;;1.73;;
77726;SDS011;68312;53.502;10.030;2023-03-24T07:21:27;3.45;;;1.52;;
77726;SDS011;68312;53.502;10.030;2023-03-24T07:23:53;3.45;;;1.60;;
77726;SDS011;68312;53.502;10.030;2023-03-24T07:26:18;2.47;;;1.60;;
77726;SDS011;68312;53.502;10.030;2023-03-24T07:28:44;3.35;;;1.55;;
77726;SDS011;68312;53.502;10.030;2023-03-24T07:31:10;2.67;;;1.50;;
77726;SDS011;68312;53.502;10.030;2023-03-24T07:33:36;2.60;;;1.60;;
77726;SDS011;68312;53.502;10.030;2023-03-24T07:36:02;3.00;;;1.50;;
77726;SDS011;68312;53.502;10.030;2023-03-24T07:38:29;4.15;;;1.58;;
77726;SDS011;68312;53.502;10.030;2023-03-24T07:40:56;4.05;;;1.55;;
77726;SDS011;68312;53.502;10.030;2023-03-24T07:43:23;2.95;;;1.10;;
77726;SDS011;68312;53.502;10.030;2023-03-24T07:45:49;2.50;;;1.10;;
77726;SDS011;68312;53.502;10.030;2023-03-24T07:48:18;3.78;;;1.10;;
77726;SDS011;68312;53.502;10.030;2023-03-24T07:50:43;3.78;;;1.08;;
77726;SDS011;68312;53.502;10.030;2023-03-24T07:53:09;2.95;;;1.10;;
77726;SDS011;68312;53.502;10.030;2023-03-24T07:55:38;2.72;;;0.82;;
77726;SDS011;68312;53.502;10.030;2023-03-24T07:58:03;5.05;;;0.68;;
77726;SDS011;68312;53.502;10.030;2023-03-24T08:00:29;7.88;;;1.63;;
77726;SDS011;68312;53.502;10.030;2023-03-24T08:02:57;5.00;;;1.00;;
77726;SDS011;68312;53.502;10.030;2023-03-24T08:05:23;4.70;;;0.88;;
77726;SDS011;68312;53.502;10.030;2023-03-24T08:07:54;2.80;;;1.35;;
77726;SDS011;68312;53.502;10.030;2023-03-24T08:10:23;6.75;;;1.73;;
77726;SDS011;68312;53.502;10.030;2023-03-24T08:12:53;5.10;;;0.98;;
77726;SDS011;68312;53.502;10.030;2023-03-24T08:15:21;2.53;;;0.88;;
77726;SDS011;68312;53.502;10.030;2023-03-24T08:17:48;5.53;;;0.80;;
77726;SDS011;68312;53.502;10.030;2023-03-24T08:20:15;4.20;;;0.88;;
77726;SDS011;68312;53.502;10.030;2023-03-24T08:22:46;3.10;;;0.75;;
77726;SDS011;68312;53.502;10.030;2023-03-24T08:25:13;5.93;;;1.00;;
77726;SDS011;68312;53.502;10.030;2023-03-24T08:27:42;6.90;;;0.98;;
77726;SDS011;68312;53.502;10.030;2023-03-24T08:30:09;3.45;;;1.00;;
77726;SDS011;68312;53.502;10.030;2023-03-24T08:32:42;2.17;;;0.75;;
77726;SDS011;68312;53.502;10.030;2023-03-24T08:35:23;6.22;;;1.30;;
77726;SDS011;68312;53.502;10.030;2023-03-24T08:37:55;3.35;;;0.82;;
77726;SDS011;68312;53.502;10.030;2023-03-24T08:40:23;2.17;;;0.88;;
77726;SDS011;68312;53.502;10.030;2023-03-24T08:42:53;3.50;;;0.90;;
77726;SDS011;68312;53.502;10.030;2023-03-24T08:45:24;8.10;;;1.20;;
77726;SDS011;68312;53.502;10.030;2023-03-24T08:47:58;4.25;;;1.00;;
77726;SDS011;68312;53.502;10.030;2023-03-24T08:50:31;2.28;;;0.90;;
77726;SDS011;68312;53.502;10.030;2023-03-24T08:53:02;5.85;;;1.02;;
77726;SDS011;68312;53.502;10.030;2023-03-24T08:55:28;3.33;;;0.90;;
77726;SDS011;68312;53.502;10.030;2023-03-24T08:57:54;4.20;;;0.90;;
77726;SDS011;68312;53.502;10.030;2023-03-24T09:00:20;4.75;;;0.77;;
77726;SDS011;68312;53.502;10.030;2023-03-24T09:02:50;4.68;;;1.30;;
77726;SDS011;68312;53.502;10.030;2023-03-24T09:05:19;5.32;;;1.00;;
77726;SDS011;68312;53.502;10.030;2023-03-24T09:07:48;3.85;;;1.10;;
77726;SDS011;68312;53.502;10.030;2023-03-24T09:10:15;3.38;;;0.93;;
77726;SDS011;68312;53.502;10.030;2023-03-24T09:12:42;4.65;;;1.33;;
77726;SDS011;68312;53.502;10.030;2023-03-24T09:15:09;3.75;;;0.85;;
77726;SDS011;68312;53.502;10.030;2023-03-24T09:17:38;3.75;;;1.00;;
77726;SDS011;68312;53.502;10.030;2023-03-24T09:20:06;8.07;;;1.20;;
77726;SDS011;68312;53.502;10.030;2023-03-24T09:22:37;6.20;;;0.95;;
77726;SDS011;68312;53.502;10.030;2023-03-24T09:25:07;6.63;;;1.55;;
77726;SDS011;68312;53.502;10.030;2023-03-24T09:27:35;3.95;;;1.17;;
77726;SDS011;68312;53.502;10.030;2023-03-24T09:30:02;3.65;;;1.27;;
77726;SDS011;68312;53.502;10.030;2023-03-24T09:32:28;3.70;;;0.90;;
77726;SDS011;68312;53.502;10.030;2023-03-24T09:34:54;3.03;;;0.75;;
77726;SDS011;68312;53.502;10.030;2023-03-24T09:37:20;3.53;;;1.17;;
77726;SDS011;68312;53.502;10.030;2023-03-24T09:39:45;2.20;;;0.85;;
77726;SDS011;68312;53.502;10.030;2023-03-24T09:42:17;4.07;;;1.40;;
77726;SDS011;68312;53.502;10.030;2023-03-24T09:44:53;4.95;;;1.23;;
77726;SDS011;68312;53.502;10.030;2023-03-24T09:50:08;4.80;;;1.40;;
77726;SDS011;68312;53.502;10.030;2023-03-24T09:52:50;3.35;;;1.05;;
77726;SDS011;68312;53.502;10.030;2023-03-24T09:55:28;5.53;;;1.17;;
77726;SDS011;68312;53.502;10.030;2023-03-24T09:58:03;6.88;;;1.20;;
77726;SDS011;68312;53.502;10.030;2023-03-24T10:00:33;1.80;;;0.73;;
77726;SDS011;68312;53.502;10.030;2023-03-24T10:03:08;6.00;;;1.20;;
77726;SDS011;68312;53.502;10.030;2023-03-24T10:09:11;6.85;;;1.25;;
77726;SDS011;68312;53.502;10.030;2023-03-24T10:17:56;7.13;;;1.08;;
77726;SDS011;68312;53.502;10.030;2023-03-24T10:23:35;7.22;;;1.08;;
77726;SDS011;68312;53.502;10.030;2023-03-24T10:26:33;7.20;;;1.00;;
77726;SDS011;68312;53.502;10.030;2023-03-24T10:29:31;5.22;;;1.40;;
77726;SDS011;68312;53.502;10.030;2023-03-24T10:32:04;5.78;;;1.35;;
77726;SDS011;68312;53.502;10.030;2023-03-24T10:34:38;6.30;;;1.02;;
77726;SDS011;68312;53.502;10.030;2023-03-24T10:37:18;7.05;;;1.33;;
77726;SDS011;68312;53.502;10.030;2023-03-24T10:39:44;2.30;;;0.75;;
77726;SDS011;68312;53.502;10.030;2023-03-24T10:42:17;3.28;;;0.90;;
77726;SDS011;68312;53.502;10.030;2023-03-24T10:44:50;5.22;;;1.33;;
77726;SDS011;68312;53.502;10.030;2023-03-24T10:47:17;6.18;;;1.10;;
77726;SDS011;68312;53.502;10.030;2023-03-24T10:49:55;9.68;;;2.45;;
77726;SDS011;68312;53.502;10.030;2023-03-24T10:52:38;5.22;;;1.00;;
77726;SDS011;68312;53.502;10.030;2023-03-24T10:55:12;10.65;;;0.95;;
77726;SDS011;68312;53.502;10.030;2023-03-24T11:00:16;4.35;;;0.80;;
77726;SDS011;68312;53.502;10.030;2023-03-24T11:02:58;3.83;;;1.33;;
77726;SDS011;68312;53.502;10.030;2023-03-24T11:05:34;20.85;;;10.30;;
77726;SDS011;68312;53.502;10.030;2023-03-24T11:08:13;4.97;;;1.70;;
77726;SDS011;68312;53.502;10.030;2023-03-24T11:10:41;6.15;;;0.93;;
77726;SDS011;68312;53.502;10.030;2023-03-24T11:13:26;6.50;;;1.52;;
77726;SDS011;68312;53.502;10.030;2023-03-24T11:16:10;4.32;;;1.10;;
77726;SDS011;68312;53.502;10.030;2023-03-24T11:18:57;3.13;;;0.82;;
77726;SDS011;68312;53.502;10.030;2023-03-24T11:21:42;6.63;;;1.15;;
77726;SDS011;68312;53.502;10.030;2023-03-24T11:24:09;7.72;;;1.25;;
77726;SDS011;68312;53.502;10.030;2023-03-24T11:26:43;5.53;;;1.98;;
77726;SDS011;68312;53.502;10.030;2023-03-24T11:29:26;5.57;;;1.00;;
77726;SDS011;68312;53.502;10.030;2023-03-24T11:31:56;7.20;;;1.23;;
77726;SDS011;68312;53.502;10.030;2023-03-24T11:34:27;7.75;;;1.58;;
77726;SDS011;68312;53.502;10.030;2023-03-24T11:37:03;6.13;;;1.52;;
77726;SDS011;68312;53.502;10.030;2023-03-24T11:39:50;6.03;;;1.25;;
77726;SDS011;68312;53.502;10.030;2023-03-24T11:42:49;9.75;;;1.30;;
77726;SDS011;68312;53.502;10.030;2023-03-24T11:45:31;7.63;;;1.13;;
77726;SDS011;68312;53.502;10.030;2023-03-24T11:48:01;6.30;;;1.50;;
77726;SDS011;68312;53.502;10.030;2023-03-24T11:50:53;5.30;;;1.50;;
77726;SDS011;68312;53.502;10.030;2023-03-24T11:53:24;7.37;;;1.30;;
77726;SDS011;68312;53.502;10.030;2023-03-24T11:56:12;8.32;;;1.17;;
77726;SDS011;68312;53.502;10.030;2023-03-24T11:59:04;5.75;;;1.40;;
77726;SDS011;68312;53.502;10.030;2023-03-24T12:02:15;5.25;;;1.00;;
77726;SDS011;68312;53.502;10.030;2023-03-24T12:05:10;6.20;;;1.52;;
77726;SDS011;68312;53.502;10.030;2023-03-24T12:07:59;5.22;;;1.13;;
77726;SDS011;68312;53.502;10.030;2023-03-24T12:17:41;5.35;;;1.15;;
77726;SDS011;68312;53.502;10.030;2023-03-24T12:26:27;5.28;;;1.30;;
77726;SDS011;68312;53.502;10.030;2023-03-24T12:50:47;5.07;;;0.93;;
77726;SDS011;68312;53.502;10.030;2023-03-24T12:53:39;4.83;;;1.20;;
77726;SDS011;68312;53.502;10.030;2023-03-24T12:57:01;4.40;;;1.30;;
77726;SDS011;68312;53.502;10.030;2023-03-24T12:59:40;5.10;;;1.40;;
77726;SDS011;68312;53.502;10.030;2023-03-24T13:05:07;4.50;;;1.00;;
77726;SDS011;68312;53.502;10.030;2023-03-24T13:07:45;7.13;;;1.30;;
77726;SDS011;68312;53.502;10.030;2023-03-24T13:10:25;5.78;;;1.20;;
77726;SDS011;68312;53.502;10.030;2023-03-24T13:12:57;6.57;;;1.33;;
77726;SDS011;68312;53.502;10.030;2023-03-24T13:15:37;8.27;;;1.40;;
77726;SDS011;68312;53.502;10.030;2023-03-24T13:18:30;7.45;;;1.35;;
77726;SDS011;68312;53.502;10.030;2023-03-24T13:30:02;5.35;;;1.23;;
77726;SDS011;68312;53.502;10.030;2023-03-24T13:32:53;6.82;;;1.50;;
77726;SDS011;68312;53.502;10.030;2023-03-24T13:38:52;6.72;;;1.00;;
77726;SDS011;68312;53.502;10.030;2023-03-24T13:41:25;3.88;;;1.25;;
77726;SDS011;68312;53.502;10.030;2023-03-24T13:44:05;6.97;;;1.65;;
77726;SDS011;68312;53.502;10.030;2023-03-24T13:46:40;4.43;;;1.20;;
77726;SDS011;68312;53.502;10.030;2023-03-24T13:49:11;6.47;;;1.05;;
77726;SDS011;68312;53.502;10.030;2023-03-24T13:51:40;5.47;;;1.27;;
77726;SDS011;68312;53.502;10.030;2023-03-24T13:54:12;4.30;;;1.10;;
77726;SDS011;68312;53.502;10.030;2023-03-24T13:56:51;7.47;;;1.38;;
77726;SDS011;68312;53.502;10.030;2023-03-24T14:02:42;3.70;;;0.70;;
77726;SDS011;68312;53.502;10.030;2023-03-24T14:07:48;4.43;;;1.00;;
77726;SDS011;68312;53.502;10.030;2023-03-24T14:10:46;4.88;;;0.85;;
77726;SDS011;68312;53.502;10.030;2023-03-24T14:23:30;5.55;;;1.02;;
77726;SDS011;68312;53.502;10.030;2023-03-24T14:28:47;3.38;;;0.98;;
77726;SDS011;68312;53.502;10.030;2023-03-24T14:31:18;4.78;;;0.90;;
77726;SDS011;68312;53.502;10.030;2023-03-24T14:36:25;8.20;;;2.55;;
77726;SDS011;68312;53.502;10.030;2023-03-24T14:44:57;6.13;;;1.05;;
77726;SDS011;68312;53.502;10.030;2023-03-24T14:47:32;4.57;;;1.10;;
77726;SDS011;68312;53.502;10.030;2023-03-24T14:50:16;3.60;;;0.80;;
77726;SDS011;68312;53.502;10.030;2023-03-24T14:52:51;4.35;;;1.33;;
77726;SDS011;68312;53.502;10.030;2023-03-24T14:55:24;5.00;;;1.10;;
77726;SDS011;68312;53.502;10.030;2023-03-24T14:57:55;5.70;;;1.00;;
77726;SDS011;68312;53.502;10.030;2023-03-24T15:00:53;3.85;;;1.05;;
77726;SDS011;68312;53.502;10.030;2023-03-24T15:06:28;3.70;;;0.70;;
77726;SDS011;68312;53.502;10.030;2023-03-24T15:08:56;3.50;;;0.90;;
77726;SDS011;68312;53.502;10.030;2023-03-24T15:11:31;6.75;;;1.98;;
77726;SDS011;68312;53.502;10.030;2023-03-24T15:14:02;4.68;;;1.95;;
77726;SDS011;68312;53.502;10.030;2023-03-24T15:16:32;5.03;;;1.02;;
77726;SDS011;68312;53.502;10.030;2023-03-24T15:19:07;4.72;;;0.95;;
77726;SDS011;68312;53.502;10.030;2023-03-24T15:24:39;3.70;;;0.93;;
77726;SDS011;68312;53.502;10.030;2023-03-24T15:29:32;3.80;;;1.20;;
77726;SDS011;68312;53.502;10.030;2023-03-24T15:32:01;4.90;;;1.17;;
77726;SDS011;68312;53.502;10.030;2023-03-24T15:34:29;6.72;;;2.40;;
77726;SDS011;68312;53.502;10.030;2023-03-24T15:37:23;5.47;;;1.70;;
77726;SDS011;68312;53.502;10.030;2023-03-24T15:40:02;5.47;;;2.53;;
77726;SDS011;68312;53.502;10.030;2023-03-24T15:42:30;8.65;;;3.08;;
77726;SDS011;68312;53.502;10.030;2023-03-24T15:45:08;7.07;;;1.30;;
77726;SDS011;68312;53.502;10.030;2023-03-24T15:47:50;7.28;;;1.25;;
77726;SDS011;68312;53.502;10.030;2023-03-24T15:50:37;8.70;;;2.25;;
77726;SDS011;68312;53.502;10.030;2023-03-24T15:55:43;7.38;;;1.38;;
77726;SDS011;68312;53.502;10.030;2023-03-24T15:58:20;4.53;;;0.88;;
77726;SDS011;68312;53.502;10.030;2023-03-24T16:00:53;3.50;;;0.80;;
77726;SDS011;68312;53.502;10.030;2023-03-24T16:03:24;6.82;;;1.00;;
77726;SDS011;68312;53.502;10.030;2023-03-24T16:05:52;6.10;;;1.58;;
77726;SDS011;68312;53.502;10.030;2023-03-24T16:11:11;4.47;;;1.35;;
77726;SDS011;68312;53.502;10.030;2023-03-24T16:13:39;4.72;;;1.27;;
77726;SDS011;68312;53.502;10.030;2023-03-24T16:18:40;6.15;;;1.27;;
77726;SDS011;68312;53.502;10.030;2023-03-24T16:21:13;6.10;;;1.13;;
77726;SDS011;68312;53.502;10.030;2023-03-24T16:23:45;6.22;;;1.25;;
77726;SDS011;68312;53.502;10.030;2023-03-24T16:28:52;5.20;;;1.27;;
77726;SDS011;68312;53.502;10.030;2023-03-24T16:31:25;6.18;;;1.33;;
77726;SDS011;68312;53.502;10.030;2023-03-24T16:33:56;4.20;;;1.05;;
77726;SDS011;68312;53.502;10.030;2023-03-24T16:36:23;5.43;;;1.20;;
77726;SDS011;68312;53.502;10.030;2023-03-24T16:38:51;5.97;;;1.55;;
77726;SDS011;68312;53.502;10.030;2023-03-24T16:41:20;9.77;;;1.67;;
77726;SDS011;68312;53.502;10.030;2023-03-24T16:43:46;3.70;;;1.10;;
77726;SDS011;68312;53.502;10.030;2023-03-24T16:46:13;5.78;;;1.80;;
77726;SDS011;68312;53.502;10.030;2023-03-24T16:49:00;8.38;;;2.42;;
77726;SDS011;68312;53.502;10.030;2023-03-24T16:51:30;5.65;;;1.55;;
77726;SDS011;68312;53.502;10.030;2023-03-24T16:53:55;3.63;;;1.30;;
77726;SDS011;68312;53.502;10.030;2023-03-24T16:56:21;7.93;;;1.55;;
77726;SDS011;68312;53.502;10.030;2023-03-24T16:58:51;5.13;;;1.52;;
77726;SDS011;68312;53.502;10.030;2023-03-24T17:01:26;3.88;;;1.40;;
77726;SDS011;68312;53.502;10.030;2023-03-24T17:06:38;7.20;;;2.33;;
77726;SDS011;68312;53.502;10.030;2023-03-24T17:09:17;4.93;;;1.35;;
77726;SDS011;68312;53.502;10.030;2023-03-24T17:11:46;6.22;;;1.35;;
77726;SDS011;68312;53.502;10.030;2023-03-24T17:14:17;4.78;;;1.35;;
77726;SDS011;68312;53.502;10.030;2023-03-24T17:16:44;4.22;;;1.42;;
77726;SDS011;68312;53.502;10.030;2023-03-24T17:19:16;7.18;;;1.27;;
77726;SDS011;68312;53.502;10.030;2023-03-24T17:21:47;5.20;;;1.23;;
77726;SDS011;68312;53.502;10.030;2023-03-24T17:24:31;8.20;;;1.38;;
77726;SDS011;68312;53.502;10.030;2023-03-24T17:27:00;4.57;;;1.42;;
77726;SDS011;68312;53.502;10.030;2023-03-24T17:29:27;6.57;;;1.70;;
77726;SDS011;68312;53.502;10.030;2023-03-24T17:31:53;4.65;;;1.40;;
77726;SDS011;68312;53.502;10.030;2023-03-24T17:34:19;5.28;;;1.38;;
77726;SDS011;68312;53.502;10.030;2023-03-24T17:36:45;4.07;;;1.38;;
77726;SDS011;68312;53.502;10.030;2023-03-24T17:39:13;6.55;;;1.50;;
77726;SDS011;68312;53.502;10.030;2023-03-24T17:41:42;6.22;;;1.63;;
77726;SDS011;68312;53.502;10.030;2023-03-24T17:44:07;5.47;;;1.45;;
77726;SDS011;68312;53.502;10.030;2023-03-24T17:46:33;6.40;;;1.50;;
77726;SDS011;68312;53.502;10.030;2023-03-24T17:48:58;7.45;;;1.42;;
77726;SDS011;68312;53.502;10.030;2023-03-24T17:51:24;3.70;;;1.20;;
77726;SDS011;68312;53.502;10.030;2023-03-24T17:53:53;4.85;;;1.20;;
77726;SDS011;68312;53.502;10.030;2023-03-24T17:56:18;7.05;;;1.35;;
77726;SDS011;68312;53.502;10.030;2023-03-24T17:58:45;5.00;;;1.25;;
77726;SDS011;68312;53.502;10.030;2023-03-24T18:01:11;5.90;;;1.83;;
77726;SDS011;68312;53.502;10.030;2023-03-24T18:03:42;4.35;;;1.10;;
77726;SDS011;68312;53.502;10.030;2023-03-24T18:06:08;4.57;;;1.10;;
77726;SDS011;68312;53.502;10.030;2023-03-24T18:08:37;4.90;;;1.30;;
77726;SDS011;68312;53.502;10.030;2023-03-24T18:11:07;1.77;;;0.85;;